Time;durP1;ratioP1;P1;durP2;ratioP2;P2;SDS_P1;SDS_P2;PMS_P1;PMS_P2;Temp;Humidity;BMP_temperature;BMP_pressure;BME280_temperature;BME280_humidity;BME280_pressure;Samples;Min_cycle;Max_cycle;Signal;HPM_P1;HPM_P2
2022/07/30 00:00:55;;;;;;;13.50;7.70;;;;;;;;;;5050021;28;20276;-66
2022/07/30 00:03:21;;;;;;;12.02;8.15;;;;;;;;;;5051970;28;20213;-67
2022/07/30 00:05:46;;;;;;;11.35;8.23;;;;;;;;;;5053822;28;20214;-66
2022/07/30 00:08:11;;;;;;;9.20;8.10;;;;;;;;;;5062227;28;20541;-66
2022/07/30 00:10:38;;;;;;;10.13;8.13;;;;;;;;;;5060578;28;20191;-66
2022/07/30 00:13:03;;;;;;;12.73;8.10;;;;;;;;;;5058369;28;20209;-66
2022/07/30 00:15:28;;;;;;;12.13;8.85;;;;;;;;;;5064830;28;20184;-67
2022/07/30 00:17:54;;;;;;;10.82;8.93;;;;;;;;;;5059916;28;20182;-66
2022/07/30 00:20:19;;;;;;;13.93;8.82;;;;;;;;;;5049663;28;20637;-66
2022/07/30 00:22:45;;;;;;;15.15;9.52;;;;;;;;;;5056424;28;20211;-66
2022/07/30 00:25:11;;;;;;;15.63;10.38;;;;;;;;;;5051293;28;20305;-67
2022/07/30 00:27:36;;;;;;;16.25;9.02;;;;;;;;;;5053911;28;20704;-66
2022/07/30 00:30:03;;;;;;;14.00;9.75;;;;;;;;;;5048456;28;20211;-67
2022/07/30 00:32:29;;;;;;;16.35;10.15;;;;;;;;;;5059016;28;20268;-66
2022/07/30 00:34:54;;;;;;;14.27;11.02;;;;;;;;;;5047528;28;20188;-66
2022/07/30 00:37:20;;;;;;;12.18;9.88;;;;;;;;;;5060433;28;20196;-66
2022/07/30 00:39:45;;;;;;;19.05;9.85;;;;;;;;;;5055305;28;20280;-66
2022/07/30 00:42:11;;;;;;;13.07;9.55;;;;;;;;;;5060844;28;20264;-67
2022/07/30 00:44:36;;;;;;;13.50;10.32;;;;;;;;;;5051233;28;20177;-66
2022/07/30 00:47:02;;;;;;;12.00;10.20;;;;;;;;;;5063050;28;20183;-66
2022/07/30 00:49:27;;;;;;;13.18;10.30;;;;;;;;;;5053176;28;20185;-67
2022/07/30 00:51:53;;;;;;;18.77;11.43;;;;;;;;;;5053757;28;20193;-67
2022/07/30 00:54:19;;;;;;;17.02;11.45;;;;;;;;;;5061822;28;20189;-67
2022/07/30 00:56:46;;;;;;;12.90;10.77;;;;;;;;;;5053681;28;20197;-67
2022/07/30 00:59:12;;;;;;;14.77;11.13;;;;;;;;;;5053821;28;20272;-67
2022/07/30 01:01:37;;;;;;;15.90;10.70;;;;;;;;;;5054135;28;20763;-67
2022/07/30 01:04:03;;;;;;;17.17;10.70;;;;;;;;;;5056724;28;20185;-67
2022/07/30 01:06:28;;;;;;;18.45;11.50;;;;;;;;;;5049086;28;20182;-67
2022/07/30 01:08:54;;;;;;;14.25;10.57;;;;;;;;;;5049058;28;20669;-67
2022/07/30 01:11:21;;;;;;;14.27;11.55;;;;;;;;;;5056710;28;20727;-67
2022/07/30 01:13:47;;;;;;;17.27;11.85;;;;;;;;;;5068301;28;20223;-67
2022/07/30 01:16:13;;;;;;;16.95;10.85;;;;;;;;;;5067776;28;20177;-67
2022/07/30 01:21:35;;;;;;;14.07;10.52;;;;;;;;;;5048988;28;20197;-67
2022/07/30 01:24:13;;;;;;;14.90;12.00;;;;;;;;;;5049900;28;20262;-67
2022/07/30 01:26:38;;;;;;;17.13;11.27;;;;;;;;;;5066890;28;20232;-67
2022/07/30 01:29:04;;;;;;;16.17;11.63;;;;;;;;;;5052794;28;20200;-67
2022/07/30 01:31:31;;;;;;;18.95;13.60;;;;;;;;;;5061774;28;20198;-68
2022/07/30 01:33:59;;;;;;;19.75;12.95;;;;;;;;;;5050191;28;20195;-67
2022/07/30 01:36:26;;;;;;;13.30;11.90;;;;;;;;;;5049970;28;20637;-67
2022/07/30 01:38:52;;;;;;;17.08;13.20;;;;;;;;;;5063285;28;20215;-67
2022/07/30 01:41:18;;;;;;;23.25;13.45;;;;;;;;;;5067571;28;20192;-67
2022/07/30 01:43:45;;;;;;;18.65;13.25;;;;;;;;;;5056918;28;20234;-67
2022/07/30 01:46:12;;;;;;;17.08;12.48;;;;;;;;;;5066977;28;20606;-67
2022/07/30 01:48:39;;;;;;;15.43;11.90;;;;;;;;;;5055466;28;20552;-67
2022/07/30 01:51:06;;;;;;;13.98;12.20;;;;;;;;;;5061304;28;20192;-67
2022/07/30 01:53:35;;;;;;;14.65;11.10;;;;;;;;;;5047491;28;20220;-67
2022/07/30 01:56:02;;;;;;;18.70;11.30;;;;;;;;;;5058692;28;20184;-67
2022/07/30 01:58:31;;;;;;;17.25;12.05;;;;;;;;;;5068358;28;20521;-67
2022/07/30 02:00:57;;;;;;;18.08;11.73;;;;;;;;;;5060778;28;20648;-67
2022/07/30 02:03:25;;;;;;;16.55;12.13;;;;;;;;;;5048300;28;20177;-68
2022/07/30 02:05:57;;;;;;;20.80;12.43;;;;;;;;;;5047420;28;20177;-67
2022/07/30 02:08:39;;;;;;;14.18;11.32;;;;;;;;;;5047836;28;20178;-67
2022/07/30 02:11:13;;;;;;;21.30;12.10;;;;;;;;;;5049237;28;20177;-67
2022/07/30 02:13:51;;;;;;;16.10;11.68;;;;;;;;;;5053930;28;20235;-67
2022/07/30 02:16:26;;;;;;;16.20;13.27;;;;;;;;;;5050286;28;20824;-67
2022/07/30 02:19:01;;;;;;;21.80;13.70;;;;;;;;;;5055892;28;20500;-67
2022/07/30 02:21:30;;;;;;;16.70;13.18;;;;;;;;;;5056890;28;20618;-67
2022/07/30 02:23:57;;;;;;;20.65;13.60;;;;;;;;;;5066074;28;20179;-67
2022/07/30 02:26:24;;;;;;;20.50;13.80;;;;;;;;;;5057084;28;20229;-67
2022/07/30 02:28:54;;;;;;;19.60;13.63;;;;;;;;;;5062824;28;20188;-67
2022/07/30 02:31:23;;;;;;;23.75;17.08;;;;;;;;;;5061257;28;20208;-67
2022/07/30 02:33:53;;;;;;;24.80;18.05;;;;;;;;;;5054043;28;20205;-67
2022/07/30 02:36:20;;;;;;;24.35;17.50;;;;;;;;;;5065726;28;20211;-67
2022/07/30 02:38:49;;;;;;;23.95;16.65;;;;;;;;;;5047283;28;20544;-67
2022/07/30 02:41:16;;;;;;;27.70;17.92;;;;;;;;;;5060604;28;20684;-67
2022/07/30 02:43:41;;;;;;;27.60;19.23;;;;;;;;;;5051379;28;20639;-67
2022/07/30 02:46:10;;;;;;;24.27;17.95;;;;;;;;;;5066893;28;20267;-67
2022/07/30 02:48:38;;;;;;;29.45;21.17;;;;;;;;;;5055586;28;20746;-66
2022/07/30 02:51:06;;;;;;;30.65;22.10;;;;;;;;;;5056697;28;20193;-67
2022/07/30 02:53:33;;;;;;;32.67;23.17;;;;;;;;;;5047221;28;20197;-67
2022/07/30 02:55:59;;;;;;;33.30;24.45;;;;;;;;;;5067107;28;20216;-67
2022/07/30 02:58:27;;;;;;;32.47;24.30;;;;;;;;;;5058697;28;20466;-67
2022/07/30 03:00:54;;;;;;;34.10;23.40;;;;;;;;;;5047725;28;20181;-67
2022/07/30 03:03:20;;;;;;;40.05;25.10;;;;;;;;;;5058686;28;20176;-67
2022/07/30 03:05:49;;;;;;;31.35;24.13;;;;;;;;;;5065901;28;20209;-67
2022/07/30 03:08:15;;;;;;;31.63;22.42;;;;;;;;;;5048834;28;20606;-67
2022/07/30 03:10:43;;;;;;;31.13;21.27;;;;;;;;;;5059125;28;20235;-67
2022/07/30 03:13:11;;;;;;;29.20;22.77;;;;;;;;;;5069394;28;20211;-67
2022/07/30 03:15:40;;;;;;;33.78;23.20;;;;;;;;;;5053552;28;20243;-67
2022/07/30 03:18:07;;;;;;;40.42;26.10;;;;;;;;;;5050655;28;20243;-67
2022/07/30 03:20:34;;;;;;;35.42;25.35;;;;;;;;;;5050148;28;20186;-67
2022/07/30 03:23:01;;;;;;;37.28;25.30;;;;;;;;;;5062806;28;20207;-67
2022/07/30 03:25:28;;;;;;;38.22;24.30;;;;;;;;;;5065066;28;20712;-67
2022/07/30 03:27:56;;;;;;;42.53;25.27;;;;;;;;;;5068852;28;20267;-67
2022/07/30 03:30:23;;;;;;;39.78;25.65;;;;;;;;;;5061787;28;20697;-67
2022/07/30 03:32:51;;;;;;;36.03;25.48;;;;;;;;;;5060879;28;20215;-67
2022/07/30 03:35:17;;;;;;;43.55;24.00;;;;;;;;;;5057372;28;20189;-66
2022/07/30 03:37:43;;;;;;;37.10;23.60;;;;;;;;;;5060857;28;20193;-67
2022/07/30 03:40:09;;;;;;;35.83;23.48;;;;;;;;;;5064088;28;20185;-67
2022/07/30 03:42:35;;;;;;;32.92;22.65;;;;;;;;;;5062462;28;20176;-67
2022/07/30 03:45:04;;;;;;;37.58;23.15;;;;;;;;;;5065432;28;20185;-67
2022/07/30 03:47:31;;;;;;;31.90;22.40;;;;;;;;;;5069403;28;20189;-67
2022/07/30 03:49:57;;;;;;;29.23;20.65;;;;;;;;;;5055640;28;20185;-66
2022/07/30 03:52:24;;;;;;;28.90;19.30;;;;;;;;;;5064267;28;20568;-67
2022/07/30 03:54:50;;;;;;;28.40;19.50;;;;;;;;;;5060788;28;20530;-68
2022/07/30 03:57:15;;;;;;;37.45;18.40;;;;;;;;;;5064564;28;20503;-68
2022/07/30 03:59:41;;;;;;;28.42;19.73;;;;;;;;;;5069724;28;20580;-68
2022/07/30 04:02:07;;;;;;;37.80;20.25;;;;;;;;;;5064266;28;20193;-68
2022/07/30 04:04:32;;;;;;;32.33;18.50;;;;;;;;;;5051554;28;20228;-68
2022/07/30 04:06:58;;;;;;;34.55;18.17;;;;;;;;;;5061919;28;20190;-68
2022/07/30 04:09:24;;;;;;;26.63;18.20;;;;;;;;;;5052971;28;20613;-67
2022/07/30 04:11:50;;;;;;;39.20;18.48;;;;;;;;;;5049299;28;20209;-67
2022/07/30 04:14:15;;;;;;;44.10;20.25;;;;;;;;;;5052699;28;20227;-67
2022/07/30 04:16:50;;;;;;;29.35;19.67;;;;;;;;;;5050449;28;21828;-67
2022/07/30 04:19:20;;;;;;;42.33;17.70;;;;;;;;;;5054031;28;20580;-68
2022/07/30 04:21:48;;;;;;;28.42;18.38;;;;;;;;;;5053399;28;20679;-68
2022/07/30 04:24:15;;;;;;;39.17;18.15;;;;;;;;;;5059206;28;20185;-67
2022/07/30 04:26:41;;;;;;;45.60;18.90;;;;;;;;;;5052057;28;20625;-67
2022/07/30 04:29:09;;;;;;;39.50;17.75;;;;;;;;;;5053911;28;20210;-65
2022/07/30 04:31:35;;;;;;;39.20;18.17;;;;;;;;;;5050705;28;20571;-66
2022/07/30 04:34:04;;;;;;;32.75;19.15;;;;;;;;;;5048418;28;20205;-65
2022/07/30 04:36:31;;;;;;;37.72;19.08;;;;;;;;;;5054331;28;20199;-66
2022/07/30 04:38:57;;;;;;;43.95;19.13;;;;;;;;;;5058522;28;20655;-66
2022/07/30 04:41:22;;;;;;;31.40;19.67;;;;;;;;;;5067385;28;20204;-66
2022/07/30 04:43:48;;;;;;;33.17;20.02;;;;;;;;;;5051988;28;20228;-66
2022/07/30 04:46:13;;;;;;;37.50;19.83;;;;;;;;;;5055077;28;20208;-66
2022/07/30 04:48:39;;;;;;;33.40;19.65;;;;;;;;;;5053742;28;20189;-67
2022/07/30 04:51:11;;;;;;;35.13;19.65;;;;;;;;;;5057359;28;20556;-66
2022/07/30 04:53:37;;;;;;;34.58;19.67;;;;;;;;;;5060271;28;20204;-66
2022/07/30 04:56:04;;;;;;;41.55;19.85;;;;;;;;;;5057780;28;20180;-66
2022/07/30 04:58:32;;;;;;;34.10;20.80;;;;;;;;;;5057417;28;20181;-66
2022/07/30 05:00:59;;;;;;;37.42;20.52;;;;;;;;;;5049610;28;20186;-66
2022/07/30 05:03:25;;;;;;;29.10;20.02;;;;;;;;;;5056988;28;20188;-66
2022/07/30 05:05:51;;;;;;;33.47;20.63;;;;;;;;;;5047423;28;20189;-66
2022/07/30 05:08:16;;;;;;;33.42;19.90;;;;;;;;;;5055164;28;20331;-66
2022/07/30 05:10:43;;;;;;;30.58;20.25;;;;;;;;;;5065244;28;20169;-66
2022/07/30 05:13:13;;;;;;;34.30;20.67;;;;;;;;;;5064297;28;20209;-66
2022/07/30 05:15:38;;;;;;;26.45;19.17;;;;;;;;;;5052012;28;20181;-66
2022/07/30 05:18:03;;;;;;;28.05;17.63;;;;;;;;;;5068437;28;20241;-65
2022/07/30 05:20:29;;;;;;;24.27;17.50;;;;;;;;;;5051108;28;20178;-66
2022/07/30 05:22:54;;;;;;;27.58;17.58;;;;;;;;;;5051784;28;20579;-66
2022/07/30 05:25:19;;;;;;;23.85;15.77;;;;;;;;;;5056661;28;20726;-66
2022/07/30 05:27:45;;;;;;;19.73;15.40;;;;;;;;;;5057480;28;20193;-66
2022/07/30 05:30:10;;;;;;;20.90;15.50;;;;;;;;;;5059065;28;20172;-66
2022/07/30 05:32:36;;;;;;;18.85;15.35;;;;;;;;;;5060459;28;20216;-67
2022/07/30 05:35:01;;;;;;;23.13;15.18;;;;;;;;;;5060865;28;20188;-66
2022/07/30 05:37:26;;;;;;;19.80;14.82;;;;;;;;;;5052179;28;20747;-67
2022/07/30 05:39:52;;;;;;;20.83;14.27;;;;;;;;;;5053043;28;20192;-66
2022/07/30 05:42:18;;;;;;;23.63;13.77;;;;;;;;;;5052851;28;20173;-66
2022/07/30 05:44:43;;;;;;;20.00;13.82;;;;;;;;;;5053789;28;20189;-66
2022/07/30 05:47:08;;;;;;;17.42;13.90;;;;;;;;;;5049100;28;20213;-66
2022/07/30 05:49:34;;;;;;;19.95;12.90;;;;;;;;;;5047907;28;20286;-66
2022/07/30 05:51:59;;;;;;;14.93;13.02;;;;;;;;;;5047827;28;20674;-66
2022/07/30 05:54:24;;;;;;;16.90;12.35;;;;;;;;;;5046226;28;20272;-66
2022/07/30 05:56:50;;;;;;;22.25;13.40;;;;;;;;;;5054008;28;20329;-66
2022/07/30 05:59:15;;;;;;;21.75;13.57;;;;;;;;;;5061328;28;20181;-66
2022/07/30 06:01:40;;;;;;;23.55;13.50;;;;;;;;;;5051818;28;20624;-66
2022/07/30 06:04:06;;;;;;;20.73;14.20;;;;;;;;;;5049057;28;20349;-66
2022/07/30 06:06:31;;;;;;;17.67;13.40;;;;;;;;;;5048040;28;20200;-66
2022/07/30 06:08:57;;;;;;;21.50;13.52;;;;;;;;;;5051362;28;20579;-67
2022/07/30 06:11:22;;;;;;;19.45;13.02;;;;;;;;;;5050761;28;20184;-66
2022/07/30 06:13:48;;;;;;;17.27;12.75;;;;;;;;;;5050870;28;20671;-66
2022/07/30 06:16:13;;;;;;;21.60;13.05;;;;;;;;;;5057468;28;20620;-67
2022/07/30 06:18:39;;;;;;;17.98;11.90;;;;;;;;;;5060624;28;20246;-67
2022/07/30 06:21:04;;;;;;;14.95;11.52;;;;;;;;;;5063113;28;20857;-67
2022/07/30 06:23:29;;;;;;;17.83;12.90;;;;;;;;;;4345907;28;10000817;-67
2022/07/30 06:25:55;;;;;;;25.77;12.35;;;;;;;;;;5059030;28;20223;-67
2022/07/30 06:28:20;;;;;;;18.52;12.50;;;;;;;;;;5051820;28;20177;-67
2022/07/30 06:30:47;;;;;;;17.50;11.98;;;;;;;;;;5049359;28;20224;-67
2022/07/30 06:33:13;;;;;;;16.65;11.90;;;;;;;;;;5048109;28;20212;-67
2022/07/30 06:35:38;;;;;;;20.10;11.98;;;;;;;;;;5058819;28;20186;-66
2022/07/30 06:38:03;;;;;;;19.85;12.65;;;;;;;;;;5049815;28;20652;-67
2022/07/30 06:40:29;;;;;;;16.30;11.15;;;;;;;;;;5055893;28;20291;-67
2022/07/30 06:42:54;;;;;;;17.48;11.55;;;;;;;;;;5052561;28;20185;-67
2022/07/30 06:45:19;;;;;;;15.77;11.55;;;;;;;;;;5055758;28;20196;-66
2022/07/30 06:47:45;;;;;;;18.08;11.88;;;;;;;;;;5060973;28;20224;-66
2022/07/30 06:50:10;;;;;;;17.92;12.07;;;;;;;;;;5052765;28;20243;-66
2022/07/30 06:52:35;;;;;;;17.52;11.48;;;;;;;;;;5061259;28;20196;-67
2022/07/30 06:55:01;;;;;;;16.60;11.02;;;;;;;;;;5062390;28;20272;-67
2022/07/30 06:57:26;;;;;;;16.55;11.05;;;;;;;;;;5058438;28;20590;-66
2022/07/30 06:59:52;;;;;;;20.35;10.70;;;;;;;;;;5056442;28;20182;-66
2022/07/30 07:02:17;;;;;;;14.07;10.25;;;;;;;;;;5055479;28;20230;-68
2022/07/30 07:04:42;;;;;;;17.48;10.40;;;;;;;;;;5050424;28;20193;-67
2022/07/30 07:07:08;;;;;;;16.88;11.20;;;;;;;;;;5058115;28;20543;-67
2022/07/30 07:09:33;;;;;;;17.13;10.10;;;;;;;;;;5050209;28;20190;-68
2022/07/30 07:11:59;;;;;;;15.30;10.20;;;;;;;;;;5052313;28;20614;-68
2022/07/30 07:14:24;;;;;;;13.43;9.90;;;;;;;;;;5062039;28;20184;-67
2022/07/30 07:16:49;;;;;;;14.50;9.77;;;;;;;;;;5055673;28;20408;-68
2022/07/30 07:19:15;;;;;;;11.63;9.32;;;;;;;;;;5056842;28;20177;-68
2022/07/30 07:21:41;;;;;;;13.73;9.43;;;;;;;;;;5057349;28;20678;-68
2022/07/30 07:24:07;;;;;;;12.77;9.52;;;;;;;;;;5064027;28;20176;-68
2022/07/30 07:26:33;;;;;;;11.88;8.95;;;;;;;;;;5061209;28;20303;-67
2022/07/30 07:28:58;;;;;;;15.93;8.65;;;;;;;;;;5061488;28;20268;-68
2022/07/30 07:31:24;;;;;;;12.18;8.45;;;;;;;;;;5061751;28;20328;-68
2022/07/30 07:33:53;;;;;;;13.88;8.73;;;;;;;;;;5054980;28;20217;-68
2022/07/30 07:36:19;;;;;;;18.10;8.70;;;;;;;;;;5051802;28;20659;-67
2022/07/30 07:38:44;;;;;;;14.48;7.75;;;;;;;;;;5059983;28;20181;-68
2022/07/30 07:41:10;;;;;;;10.77;7.97;;;;;;;;;;5068301;28;20754;-68
2022/07/30 07:43:35;;;;;;;10.13;7.95;;;;;;;;;;5059040;28;20575;-69
2022/07/30 07:46:01;;;;;;;10.07;8.05;;;;;;;;;;5050192;28;20668;-67
2022/07/30 07:48:26;;;;;;;11.88;7.68;;;;;;;;;;5052424;28;20581;-69
2022/07/30 07:50:51;;;;;;;13.10;7.35;;;;;;;;;;5048595;28;20185;-68
2022/07/30 07:53:17;;;;;;;9.27;7.10;;;;;;;;;;5053610;28;20254;-69
2022/07/30 07:55:42;;;;;;;12.57;7.15;;;;;;;;;;5049306;28;20185;-68
2022/07/30 07:58:10;;;;;;;10.05;6.75;;;;;;;;;;5045711;28;20542;-68
2022/07/30 08:00:35;;;;;;;7.95;6.22;;;;;;;;;;5049227;28;20201;-66
2022/07/30 08:03:00;;;;;;;10.15;6.20;;;;;;;;;;5049852;28;20209;-66
2022/07/30 08:05:26;;;;;;;11.13;5.93;;;;;;;;;;5054524;28;20563;-66
2022/07/30 08:07:51;;;;;;;11.35;6.32;;;;;;;;;;5050469;28;20173;-66
2022/07/30 08:10:17;;;;;;;15.10;6.18;;;;;;;;;;5051750;28;20181;-66
2022/07/30 08:12:43;;;;;;;12.88;6.60;;;;;;;;;;5052426;28;20229;-66
2022/07/30 08:15:09;;;;;;;8.48;6.15;;;;;;;;;;5055921;28;20209;-66
2022/07/30 08:17:41;;;;;;;10.32;6.32;;;;;;;;;;5053144;28;20634;-66
2022/07/30 08:20:07;;;;;;;9.27;5.40;;;;;;;;;;5052440;28;20188;-68
2022/07/30 08:22:33;;;;;;;11.35;5.70;;;;;;;;;;5050989;28;20234;-66
2022/07/30 08:24:59;;;;;;;9.40;4.95;;;;;;;;;;5050790;28;20229;-67
2022/07/30 08:27:25;;;;;;;7.50;4.95;;;;;;;;;;5054125;28;20180;-66
2022/07/30 08:29:50;;;;;;;9.77;5.68;;;;;;;;;;5049836;28;20272;-67
2022/07/30 08:32:15;;;;;;;12.15;5.55;;;;;;;;;;5053096;28;20201;-66
2022/07/30 08:34:41;;;;;;;6.65;4.88;;;;;;;;;;5047762;28;20219;-66
2022/07/30 08:37:06;;;;;;;6.47;4.80;;;;;;;;;;5051635;28;20509;-68
2022/07/30 08:39:31;;;;;;;13.60;6.88;;;;;;;;;;5053456;28;20188;-66
2022/07/30 08:41:58;;;;;;;10.75;5.28;;;;;;;;;;5049330;28;20199;-64
2022/07/30 08:44:25;;;;;;;12.63;5.35;;;;;;;;;;5046979;28;20185;-66
2022/07/30 08:46:52;;;;;;;14.73;5.65;;;;;;;;;;5052251;28;20605;-66
2022/07/30 08:49:18;;;;;;;8.38;4.75;;;;;;;;;;5043972;28;20190;-67
2022/07/30 08:51:43;;;;;;;7.30;4.80;;;;;;;;;;5049600;28;20207;-66
2022/07/30 08:54:09;;;;;;;10.48;5.38;;;;;;;;;;5048384;28;20278;-66
2022/07/30 08:56:34;;;;;;;8.50;4.93;;;;;;;;;;5050424;28;20553;-66
2022/07/30 08:59:00;;;;;;;10.10;4.47;;;;;;;;;;5053018;28;20184;-67
2022/07/30 09:01:26;;;;;;;5.85;3.92;;;;;;;;;;5046210;28;20181;-65
2022/07/30 09:03:51;;;;;;;9.68;4.88;;;;;;;;;;5053269;28;20683;-65
2022/07/30 09:06:16;;;;;;;10.27;5.68;;;;;;;;;;5048020;28;20694;-65
2022/07/30 09:08:42;;;;;;;13.65;7.38;;;;;;;;;;5057736;28;20180;-65
2022/07/30 09:11:08;;;;;;;10.98;6.53;;;;;;;;;;5053288;28;20177;-65
2022/07/30 09:13:36;;;;;;;27.10;16.95;;;;;;;;;;5052262;28;20208;-65
2022/07/30 09:16:03;;;;;;;9.43;4.75;;;;;;;;;;5054280;28;20176;-66
2022/07/30 09:18:37;;;;;;;8.38;3.63;;;;;;;;;;5051992;28;20181;-66
2022/07/30 09:21:25;;;;;;;7.70;3.78;;;;;;;;;;5054953;28;20181;-65
2022/07/30 09:23:53;;;;;;;6.25;3.78;;;;;;;;;;5048225;28;20188;-65
2022/07/30 09:26:19;;;;;;;7.85;3.47;;;;;;;;;;5052774;28;20233;-65
2022/07/30 09:28:44;;;;;;;6.47;3.00;;;;;;;;;;5051482;28;20177;-66
2022/07/30 09:31:10;;;;;;;7.57;3.20;;;;;;;;;;5053181;28;20252;-66
2022/07/30 09:33:41;;;;;;;9.00;3.38;;;;;;;;;;5052172;28;20527;-66
2022/07/30 09:36:08;;;;;;;5.45;2.83;;;;;;;;;;5056356;28;20264;-67
2022/07/30 09:38:51;;;;;;;8.13;3.28;;;;;;;;;;5054408;28;20213;-66
2022/07/30 09:41:34;;;;;;;11.23;3.05;;;;;;;;;;5047285;28;20181;-66
2022/07/30 09:44:03;;;;;;;5.63;2.53;;;;;;;;;;5059102;28;20173;-67
2022/07/30 09:46:41;;;;;;;7.57;3.05;;;;;;;;;;5050553;28;20187;-67
2022/07/30 09:49:13;;;;;;;6.85;3.00;;;;;;;;;;5049207;28;20254;-67
2022/07/30 09:51:39;;;;;;;4.80;2.88;;;;;;;;;;5056893;28;20186;-66
2022/07/30 09:54:04;;;;;;;5.47;3.15;;;;;;;;;;5053390;28;20201;-67
2022/07/30 09:56:29;;;;;;;10.50;3.40;;;;;;;;;;5053918;28;20491;-67
2022/07/30 09:58:55;;;;;;;8.23;2.70;;;;;;;;;;5058190;28;20189;-66
2022/07/30 10:01:21;;;;;;;6.53;3.00;;;;;;;;;;4355853;28;10000319;-66
2022/07/30 10:03:46;;;;;;;4.68;2.60;;;;;;;;;;5052287;28;20177;-67
2022/07/30 10:06:12;;;;;;;6.10;2.67;;;;;;;;;;5048759;28;20211;-68
2022/07/30 10:08:43;;;;;;;7.72;2.67;;;;;;;;;;5050197;28;20660;-67
2022/07/30 10:11:14;;;;;;;7.20;2.45;;;;;;;;;;5059714;28;20276;-67
2022/07/30 10:13:40;;;;;;;4.78;2.15;;;;;;;;;;5048152;28;20646;-66
2022/07/30 10:16:07;;;;;;;10.48;3.03;;;;;;;;;;5064957;28;20184;-67
2022/07/30 10:18:33;;;;;;;7.22;2.75;;;;;;;;;;5061354;28;20212;-68
2022/07/30 10:21:00;;;;;;;5.85;2.50;;;;;;;;;;5057165;28;20263;-67
2022/07/30 10:23:28;;;;;;;7.80;2.55;;;;;;;;;;5059198;28;20184;-67
2022/07/30 10:26:01;;;;;;;5.38;2.10;;;;;;;;;;5051098;28;20224;-66
2022/07/30 10:28:28;;;;;;;5.43;2.50;;;;;;;;;;5052750;28;20219;-66
2022/07/30 10:30:55;;;;;;;6.00;2.47;;;;;;;;;;5058558;28;20187;-66
2022/07/30 10:33:23;;;;;;;7.35;2.40;;;;;;;;;;5050279;28;20205;-66
2022/07/30 10:35:48;;;;;;;5.28;2.17;;;;;;;;;;5056118;28;20213;-67
2022/07/30 10:38:16;;;;;;;6.88;2.65;;;;;;;;;;5055463;28;20217;-68
2022/07/30 10:40:54;;;;;;;9.15;2.10;;;;;;;;;;5058754;28;20254;-67
2022/07/30 10:44:06;;;;;;;7.22;2.10;;;;;;;;;;5055978;28;20261;-66
2022/07/30 10:46:48;;;;;;;7.13;2.40;;;;;;;;;;5056098;28;20185;-67
2022/07/30 10:49:15;;;;;;;5.03;2.28;;;;;;;;;;5064321;28;20268;-67
2022/07/30 10:51:50;;;;;;;6.72;2.28;;;;;;;;;;5063444;28;20181;-69
2022/07/30 10:54:43;;;;;;;6.47;2.25;;;;;;;;;;5064826;28;20204;-68
2022/07/30 10:57:16;;;;;;;6.07;2.28;;;;;;;;;;4702248;28;10000536;-66
2022/07/30 10:59:48;;;;;;;4.20;1.83;;;;;;;;;;5058385;28;20241;-65
2022/07/30 11:02:13;;;;;;;5.95;1.90;;;;;;;;;;5050502;28;20200;-66
2022/07/30 11:04:39;;;;;;;5.78;1.85;;;;;;;;;;5059991;28;20657;-65
2022/07/30 11:07:33;;;;;;;4.78;2.08;;;;;;;;;;5061000;28;20662;-66
2022/07/30 11:10:00;;;;;;;5.95;1.70;;;;;;;;;;5046538;28;20560;-67
2022/07/30 11:12:40;;;;;;;3.03;1.75;;;;;;;;;;5059614;28;21717;-65
2022/07/30 11:15:11;;;;;;;7.47;2.05;;;;;;;;;;5059087;28;20188;-66
2022/07/30 11:18:03;;;;;;;5.35;1.52;;;;;;;;;;5051419;28;20187;-67
2022/07/30 11:20:30;;;;;;;2.37;1.80;;;;;;;;;;4702587;28;10000078;-66
2022/07/30 11:23:10;;;;;;;4.90;2.10;;;;;;;;;;5056914;28;20447;-66
2022/07/30 11:25:35;;;;;;;4.75;1.80;;;;;;;;;;5051224;28;20240;-66
2022/07/30 11:28:00;;;;;;;4.97;1.77;;;;;;;;;;5056430;28;20493;-65
2022/07/30 11:30:30;;;;;;;4.07;1.88;;;;;;;;;;5056992;28;20178;-65
2022/07/30 11:33:15;;;;;;;6.60;2.17;;;;;;;;;;5055545;28;20240;-65
2022/07/30 11:35:41;;;;;;;3.75;1.48;;;;;;;;;;5055385;28;20193;-65
2022/07/30 11:38:08;;;;;;;5.78;1.75;;;;;;;;;;5058573;28;20187;-67
2022/07/30 11:40:58;;;;;;;5.43;1.98;;;;;;;;;;5058877;28;20177;-67
2022/07/30 11:43:31;;;;;;;3.63;1.70;;;;;;;;;;5053268;28;20193;-66
2022/07/30 11:46:07;;;;;;;4.72;1.85;;;;;;;;;;5051248;28;20176;-67
2022/07/30 11:48:34;;;;;;;4.38;1.90;;;;;;;;;;5055735;28;20224;-66
2022/07/30 11:50:59;;;;;;;3.47;1.42;;;;;;;;;;5050324;28;20684;-65
2022/07/30 11:53:25;;;;;;;9.85;1.98;;;;;;;;;;5056500;28;20200;-65
2022/07/30 11:55:52;;;;;;;3.22;1.67;;;;;;;;;;5058065;28;20264;-66
2022/07/30 11:58:38;;;;;;;4.38;1.40;;;;;;;;;;5057784;28;20181;-66
2022/07/30 12:01:14;;;;;;;4.70;1.35;;;;;;;;;;5056740;28;20211;-66
2022/07/30 12:03:43;;;;;;;2.58;1.13;;;;;;;;;;5055071;28;20188;-66
2022/07/30 12:06:18;;;;;;;4.72;1.52;;;;;;;;;;5058086;28;20185;-65
2022/07/30 12:08:46;;;;;;;3.13;1.40;;;;;;;;;;5053820;28;20656;-65
2022/07/30 12:11:12;;;;;;;3.53;1.50;;;;;;;;;;5051008;28;20783;-65
2022/07/30 12:13:39;;;;;;;4.50;1.83;;;;;;;;;;5051227;28;20243;-64
2022/07/30 12:16:08;;;;;;;4.03;1.65;;;;;;;;;;5053894;28;20181;-64
2022/07/30 12:18:34;;;;;;;1.88;1.45;;;;;;;;;;5054423;28;20181;-66
2022/07/30 12:21:08;;;;;;;2.88;1.63;;;;;;;;;;5058005;28;20542;-66
2022/07/30 12:23:34;;;;;;;3.15;1.42;;;;;;;;;;5049495;28;20203;-66
2022/07/30 12:26:00;;;;;;;2.50;1.60;;;;;;;;;;5058116;28;20650;-66
2022/07/30 12:28:28;;;;;;;3.10;1.67;;;;;;;;;;5068380;28;20543;-65
2022/07/30 12:30:55;;;;;;;3.25;1.55;;;;;;;;;;5062662;28;20187;-68
2022/07/30 12:33:22;;;;;;;2.67;1.50;;;;;;;;;;5058109;28;20205;-67
2022/07/30 12:35:55;;;;;;;3.38;1.27;;;;;;;;;;5054693;28;20242;-68
2022/07/30 12:38:22;;;;;;;3.78;1.60;;;;;;;;;;5051963;28;20239;-66
2022/07/30 12:40:51;;;;;;;5.95;1.45;;;;;;;;;;5053511;28;20192;-67
2022/07/30 12:43:17;;;;;;;4.03;1.33;;;;;;;;;;5054367;28;20675;-67
2022/07/30 12:45:42;;;;;;;5.38;1.60;;;;;;;;;;5055911;28;20196;-66
2022/07/30 12:48:11;;;;;;;4.07;1.70;;;;;;;;;;5054036;28;20211;-67
2022/07/30 12:50:37;;;;;;;3.47;1.50;;;;;;;;;;5059505;28;20181;-67
2022/07/30 12:53:02;;;;;;;5.35;1.42;;;;;;;;;;5056030;28;20316;-65
2022/07/30 12:55:32;;;;;;;5.07;1.55;;;;;;;;;;5058771;28;20189;-66
2022/07/30 12:58:03;;;;;;;5.07;1.35;;;;;;;;;;5058536;28;20715;-67
2022/07/30 13:00:50;;;;;;;4.38;1.80;;;;;;;;;;5056862;28;20637;-67
2022/07/30 13:03:20;;;;;;;5.03;1.60;;;;;;;;;;5058218;28;20477;-66
2022/07/30 13:05:48;;;;;;;3.10;1.32;;;;;;;;;;4358738;28;10022772;-67
2022/07/30 13:08:14;;;;;;;2.83;1.38;;;;;;;;;;5047359;28;20251;-66
2022/07/30 13:10:56;;;;;;;3.05;1.45;;;;;;;;;;5045474;28;20272;-67
2022/07/30 13:13:22;;;;;;;2.20;1.42;;;;;;;;;;5058749;28;20208;-67
2022/07/30 13:15:58;;;;;;;5.80;1.73;;;;;;;;;;5061056;28;20199;-66
2022/07/30 13:18:23;;;;;;;3.50;1.50;;;;;;;;;;5062259;28;20194;-69
2022/07/30 13:20:49;;;;;;;3.50;1.40;;;;;;;;;;5052201;28;20189;-67
2022/07/30 13:23:14;;;;;;;3.55;1.27;;;;;;;;;;5055448;28;20494;-67
2022/07/30 13:25:39;;;;;;;3.20;1.60;;;;;;;;;;5061152;28;20655;-67
2022/07/30 13:28:05;;;;;;;2.88;1.48;;;;;;;;;;5061050;28;20181;-67
2022/07/30 13:30:30;;;;;;;4.85;1.80;;;;;;;;;;5060352;28;20185;-68
2022/07/30 13:32:55;;;;;;;3.03;1.27;;;;;;;;;;5060133;28;20250;-68
2022/07/30 13:35:21;;;;;;;2.22;1.42;;;;;;;;;;5047516;28;20203;-69
2022/07/30 13:37:46;;;;;;;2.08;1.40;;;;;;;;;;5055367;28;20266;-69
2022/07/30 13:40:11;;;;;;;2.67;1.08;;;;;;;;;;5050134;28;20645;-69
2022/07/30 13:42:37;;;;;;;3.03;1.20;;;;;;;;;;5045217;28;20177;-69
2022/07/30 13:45:02;;;;;;;2.45;1.10;;;;;;;;;;5047631;28;20211;-68
2022/07/30 13:47:28;;;;;;;1.52;1.25;;;;;;;;;;5051838;28;20231;-68
2022/07/30 13:49:53;;;;;;;3.20;1.50;;;;;;;;;;5046738;28;20186;-66
2022/07/30 13:52:18;;;;;;;2.30;1.08;;;;;;;;;;5051004;28;20226;-67
2022/07/30 13:54:44;;;;;;;2.28;1.40;;;;;;;;;;5047657;28;20174;-67
2022/07/30 13:57:09;;;;;;;4.00;1.45;;;;;;;;;;5052003;28;20173;-67
2022/07/30 13:59:35;;;;;;;3.65;1.60;;;;;;;;;;5048802;28;20200;-66
2022/07/30 14:02:01;;;;;;;4.15;1.45;;;;;;;;;;5053294;28;20660;-65
2022/07/30 14:04:27;;;;;;;1.90;1.08;;;;;;;;;;5050716;28;20235;-66
2022/07/30 14:06:52;;;;;;;1.58;1.20;;;;;;;;;;5054089;28;20555;-67
2022/07/30 14:09:18;;;;;;;2.15;1.27;;;;;;;;;;5059214;28;20543;-65
2022/07/30 14:11:43;;;;;;;2.88;1.30;;;;;;;;;;5044491;28;20208;-66
2022/07/30 14:14:09;;;;;;;3.55;1.50;;;;;;;;;;5048564;28;20480;-67
2022/07/30 14:16:34;;;;;;;4.75;1.23;;;;;;;;;;5052259;28;20279;-67
2022/07/30 14:18:59;;;;;;;4.78;1.40;;;;;;;;;;5053920;28;20711;-68
2022/07/30 14:21:25;;;;;;;3.33;1.08;;;;;;;;;;5053491;28;20265;-65
2022/07/30 14:23:50;;;;;;;1.75;0.95;;;;;;;;;;5053465;28;20276;-67
2022/07/30 14:26:15;;;;;;;1.10;1.00;;;;;;;;;;5057957;28;20233;-65
2022/07/30 14:28:41;;;;;;;4.55;1.00;;;;;;;;;;5067389;28;20177;-65
2022/07/30 14:31:06;;;;;;;3.05;0.85;;;;;;;;;;5053090;28;20211;-65
2022/07/30 14:33:31;;;;;;;2.65;0.90;;;;;;;;;;5048369;28;20613;-67